Time;durP1;ratioP1;P1;durP2;ratioP2;P2;SDS_P1;SDS_P2;PMS_P1;PMS_P2;Temp;Humidity;BMP_temperature;BMP_pressure;BME280_temperature;BME280_humidity;BME280_pressure;Samples;Min_cycle;Max_cycle;Signal;HPM_P1;HPM_P2
2020/12/06 00:00:49;;;;;;;42.80;24.05;;;;;;;4.60;100.00;100381.34;6197199;23;20026;-95
2020/12/06 00:03:19;;;;;;;43.17;24.40;;;;;;;4.64;100.00;100377.69;6195466;23;20020;-95
2020/12/06 00:05:47;;;;;;;43.13;25.02;;;;;;;4.40;100.00;100369.63;6195796;23;20031;-94
2020/12/06 00:08:15;;;;;;;45.28;25.17;;;;;;;4.41;100.00;100378.44;6196655;23;20507;-93
2020/12/06 00:19:07;;;;;;;46.75;26.50;;;;;;;4.20;100.00;100366.72;6215240;23;20031;-94
2020/12/06 00:21:35;;;;;;;50.00;27.50;;;;;;;4.24;100.00;100365.69;6212575;23;20020;-94
2020/12/06 00:24:05;;;;;;;44.65;24.85;;;;;;;4.22;100.00;100362.22;6197171;23;20040;-95
2020/12/06 00:26:32;;;;;;;40.67;23.90;;;;;;;4.29;100.00;100363.75;6234286;22;20024;-94
2020/12/06 00:29:00;;;;;;;47.70;28.23;;;;;;;4.34;100.00;100370.66;6251671;22;20454;-94
2020/12/06 00:31:27;;;;;;;43.85;27.17;;;;;;;4.24;100.00;100371.00;6251261;22;20019;-94
2020/12/06 00:33:55;;;;;;;44.05;26.17;;;;;;;4.33;100.00;100376.88;6249927;22;20019;-93
2020/12/06 00:36:23;;;;;;;42.80;25.35;;;;;;;4.39;100.00;100388.19;6250712;22;20470;-94
2020/12/06 00:38:50;;;;;;;50.78;26.50;;;;;;;4.55;100.00;100405.38;6257595;22;20019;-93
2020/12/06 00:41:18;;;;;;;47.08;25.52;;;;;;;4.52;100.00;100405.47;6260023;22;20026;-94
2020/12/06 00:43:45;;;;;;;45.88;26.20;;;;;;;4.55;100.00;100410.66;6250262;22;20016;-93
2020/12/06 00:46:19;;;;;;;46.38;26.80;;;;;;;4.56;100.00;100413.25;6250087;22;20023;-93
2020/12/06 00:48:46;;;;;;;42.97;25.38;;;;;;;4.49;100.00;100400.25;6248576;22;20079;-93
2020/12/06 00:51:13;;;;;;;42.40;25.20;;;;;;;4.40;100.00;100398.78;6246791;22;20015;-94
2020/12/06 00:53:42;;;;;;;39.13;24.75;;;;;;;4.52;100.00;100424.03;6243404;22;20024;-90
2020/12/06 00:56:18;;;;;;;43.78;25.75;;;;;;;4.42;100.00;100425.22;6247675;22;20049;-90
2020/12/06 00:58:45;;;;;;;42.03;24.90;;;;;;;4.46;100.00;100438.31;6247476;22;20816;-94
2020/12/06 01:01:13;;;;;;;37.17;23.77;;;;;;;4.51;100.00;100432.91;6248106;22;20015;-92
2020/12/06 01:03:41;;;;;;;42.08;24.42;;;;;;;4.57;100.00;100435.34;6244416;22;20034;-92
2020/12/06 01:06:13;;;;;;;39.72;24.52;;;;;;;4.60;100.00;100445.84;6242759;22;20034;-94
2020/12/06 01:08:42;;;;;;;38.25;23.60;;;;;;;4.60;100.00;100443.19;6244180;22;20058;-91
2020/12/06 01:11:12;;;;;;;37.72;24.30;;;;;;;4.55;100.00;100442.50;6247762;22;20016;-94
2020/12/06 01:13:39;;;;;;;40.53;23.55;;;;;;;4.55;100.00;100437.19;6248249;22;20024;-91
2020/12/06 01:16:06;;;;;;;42.92;24.88;;;;;;;4.53;100.00;100433.69;6247107;22;20051;-88
2020/12/06 01:18:34;;;;;;;39.90;24.80;;;;;;;4.50;100.00;100433.78;6247975;22;20019;-94
2020/12/06 01:21:01;;;;;;;44.15;26.17;;;;;;;4.49;100.00;100434.72;6242908;22;20081;-94
2020/12/06 01:23:31;;;;;;;;;;;;;;;4.53;100.00;100429.25;6245953;22;20048;-94
2020/12/06 01:26:00;;;;;;;42.90;24.98;;;;;;;4.43;100.00;100430.47;6249012;22;19915;-89
2020/12/06 01:28:27;;;;;;;45.25;26.63;;;;;;;4.45;100.00;100430.44;6277494;22;20024;-90
2020/12/06 01:30:54;;;;;;;47.90;26.50;;;;;;;4.41;100.00;100434.09;6275878;22;20015;-91
2020/12/06 01:33:22;;;;;;;46.08;27.08;;;;;;;4.40;100.00;100427.03;6248051;22;20463;-95
2020/12/06 01:35:49;;;;;;;43.70;27.02;;;;;;;4.34;100.00;100434.28;6241611;22;20024;-93
2020/12/06 01:38:16;;;;;;;44.80;27.83;;;;;;;4.42;100.00;100434.03;6246256;22;20020;-92
2020/12/06 01:40:44;;;;;;;48.03;27.20;;;;;;;4.43;100.00;100437.53;6247277;22;20024;-94
2020/12/06 01:43:12;;;;;;;49.00;27.30;;;;;;;4.45;100.00;100446.34;6247536;22;20027;-93
2020/12/06 01:45:39;;;;;;;42.20;25.55;;;;;;;4.52;100.00;100455.84;6247865;22;20023;-93
2020/12/06 01:48:08;;;;;;;47.08;27.92;;;;;;;4.50;100.00;100465.59;6244634;22;20385;-94
2020/12/06 01:50:35;;;;;;;44.67;26.98;;;;;;;4.46;100.00;100478.09;6246762;22;20023;-94
2020/12/06 01:53:04;;;;;;;45.60;27.58;;;;;;;4.44;100.00;100476.41;6255283;22;20019;-95
2020/12/06 01:55:32;;;;;;;48.97;27.75;;;;;;;4.36;100.00;100468.66;6251305;22;20030;-95
2020/12/06 01:58:04;;;;;;;46.30;25.90;;;;;;;4.39;100.00;100470.38;6250632;22;20459;-94
2020/12/06 02:00:32;;;;;;;48.47;27.25;;;;;;;4.44;100.00;100468.47;6250304;22;20007;-94
2020/12/06 02:03:01;;;;;;;48.17;26.67;;;;;;;4.52;100.00;100455.84;6245606;22;20018;-94
2020/12/06 02:05:29;;;;;;;43.33;26.42;;;;;;;4.49;100.00;100447.97;6246518;22;20856;-94
2020/12/06 02:07:58;;;;;;;49.47;28.33;;;;;;;4.52;100.00;100443.44;6248942;22;20110;-93
2020/12/06 02:10:25;;;;;;;44.40;27.02;;;;;;;4.57;100.00;100435.34;6246292;22;20332;-92
2020/12/06 02:12:54;;;;;;;48.22;27.13;;;;;;;4.49;100.00;100442.66;6246607;22;20085;-94
2020/12/06 02:15:23;;;;;;;42.83;26.98;;;;;;;4.48;100.00;100440.94;6243930;22;20034;-94
2020/12/06 02:17:52;;;;;;;43.40;26.88;;;;;;;4.49;100.00;100432.06;6240810;22;20031;-93
2020/12/06 02:20:23;;;;;;;45.28;28.15;;;;;;;4.10;100.00;100414.66;6275303;22;20023;-94
2020/12/06 02:22:51;;;;;;;45.58;26.55;;;;;;;4.15;100.00;100406.59;6250795;22;20051;-94
2020/12/06 02:25:18;;;;;;;48.35;26.98;;;;;;;4.16;100.00;100415.41;6250599;22;20027;-94
2020/12/06 02:27:46;;;;;;;45.15;27.50;;;;;;;4.18;100.00;100419.72;6249574;22;20031;-95
2020/12/06 02:30:14;;;;;;;41.00;25.48;;;;;;;4.28;100.00;100402.66;6247552;22;20023;-95
2020/12/06 02:32:41;;;;;;;47.47;27.42;;;;;;;4.08;100.00;100402.41;6244221;22;20054;-93
2020/12/06 02:35:10;;;;;;;45.85;26.70;;;;;;;3.96;100.00;100405.41;6253173;22;20027;-93
2020/12/06 02:37:40;;;;;;;43.78;26.48;;;;;;;3.72;100.00;100410.50;6252797;22;20024;-93
2020/12/06 02:40:07;;;;;;;45.50;27.13;;;;;;;3.80;100.00;100408.50;6248397;22;20081;-93
2020/12/06 02:42:34;;;;;;;42.80;25.52;;;;;;;3.93;100.00;100401.09;6250003;22;20079;-95
2020/12/06 02:45:02;;;;;;;43.00;26.08;;;;;;;4.04;100.00;100419.31;6246725;22;20062;-94
2020/12/06 02:47:29;;;;;;;45.70;27.60;;;;;;;3.81;100.00;100415.53;6245305;22;20016;-94
2020/12/06 02:49:57;;;;;;;46.58;27.45;;;;;;;3.60;100.00;100416.13;6247047;22;20016;-94
2020/12/06 02:52:25;;;;;;;46.90;27.70;;;;;;;3.47;100.00;100417.41;6247760;22;20051;-93
2020/12/06 02:54:54;;;;;;;47.10;26.37;;;;;;;3.50;100.00;100417.28;6247683;22;20030;-94
2020/12/06 02:57:21;;;;;;;50.83;28.08;;;;;;;3.66;100.00;100426.56;6249655;22;20015;-93
2020/12/06 02:59:49;;;;;;;51.87;28.43;;;;;;;3.80;100.00;100431.47;6243149;22;20074;-94
2020/12/06 03:02:17;;;;;;;54.40;29.60;;;;;;;3.83;100.00;100420.78;6247956;22;20093;-94
2020/12/06 03:05:18;;;;;;;47.85;27.50;;;;;;;3.49;100.00;100426.16;6300683;22;20020;-95
2020/12/06 03:07:46;;;;;;;47.25;27.13;;;;;;;3.52;100.00;100420.78;6255998;22;20016;-94
2020/12/06 03:10:15;;;;;;;53.23;31.33;;;;;;;3.38;100.00;100408.78;6273578;22;20030;-94
2020/12/06 03:12:44;;;;;;;53.55;30.10;;;;;;;3.55;100.00;100412.75;6260886;22;20020;-93
2020/12/06 03:15:12;;;;;;;51.80;29.67;;;;;;;3.64;100.00;100401.88;6250313;22;20015;-94
2020/12/06 03:17:39;;;;;;;50.50;29.73;;;;;;;3.73;100.00;100391.06;6253807;22;20016;-93
2020/12/06 03:20:09;;;;;;;48.20;28.33;;;;;;;3.75;100.00;100380.41;6261383;22;20528;-94
2020/12/06 03:22:38;;;;;;;49.28;28.17;;;;;;;3.77;100.00;100374.16;6279132;22;20093;-94
2020/12/06 03:25:06;;;;;;;53.42;29.65;;;;;;;3.70;100.00;100362.00;6251510;22;20086;-95
2020/12/06 03:27:36;;;;;;;47.90;27.60;;;;;;;3.73;100.00;100355.75;6247330;22;20058;-94
2020/12/06 03:30:03;;;;;;;51.00;29.23;;;;;;;3.69;100.00;100359.41;6250365;22;20451;-94
2020/12/06 03:32:32;;;;;;;50.15;28.33;;;;;;;3.59;100.00;100353.50;6251460;22;20027;-93
2020/12/06 03:34:59;;;;;;;49.63;28.65;;;;;;;3.54;100.00;100364.25;6251403;22;20050;-94
2020/12/06 03:37:27;;;;;;;49.55;28.20;;;;;;;3.69;100.00;100370.00;6253796;22;20011;-93
2020/12/06 03:39:55;;;;;;;48.75;28.98;;;;;;;3.73;100.00;100377.81;6249127;22;20083;-94
2020/12/06 03:42:25;;;;;;;47.78;28.77;;;;;;;3.79;100.00;100374.13;6247771;22;20077;-94
2020/12/06 03:44:54;;;;;;;52.10;28.85;;;;;;;3.66;100.00;100381.56;6251949;22;20098;-93
2020/12/06 03:47:21;;;;;;;51.60;29.87;;;;;;;3.51;100.00;100382.84;6251709;22;20466;-94
2020/12/06 03:49:49;;;;;;;53.63;31.30;;;;;;;3.52;100.00;100379.28;6249111;22;20020;-94
2020/12/06 03:52:17;;;;;;;52.05;29.90;;;;;;;3.48;100.00;100382.06;6248453;22;20026;-93
2020/12/06 03:54:44;;;;;;;58.17;31.83;;;;;;;3.57;100.00;100381.78;6241254;22;20032;-94
2020/12/06 03:57:11;;;;;;;52.30;31.20;;;;;;;3.46;100.00;100379.47;6246498;22;20042;-94
2020/12/06 03:59:39;;;;;;;54.65;31.02;;;;;;;3.43;100.00;100378.69;6250599;22;20047;-94
2020/12/06 04:02:08;;;;;;;58.65;33.25;;;;;;;3.46;100.00;100357.41;6252012;22;20023;-93
2020/12/06 04:04:35;;;;;;;59.55;32.85;;;;;;;3.53;100.00;100343.09;6251772;22;20092;-93
2020/12/06 04:07:03;;;;;;;55.33;32.63;;;;;;;3.56;100.00;100353.59;6247811;22;20703;-93
2020/12/06 04:09:30;;;;;;;53.50;31.05;;;;;;;3.60;100.00;100358.75;6244827;22;20232;-93
2020/12/06 04:11:58;;;;;;;59.08;33.17;;;;;;;3.58;100.00;100354.44;6249223;22;20057;-93
2020/12/06 04:14:25;;;;;;;55.40;32.43;;;;;;;3.58;100.00;100338.56;6276766;22;20031;-94
2020/12/06 04:16:54;;;;;;;54.75;31.17;;;;;;;3.37;100.00;100314.44;6267877;22;20034;-93
2020/12/06 04:20:13;;;;;;;58.07;31.30;;;;;;;3.43;100.00;100312.53;6269753;22;20016;-93
2020/12/06 04:23:28;;;;;;;54.53;31.47;;;;;;;3.25;100.00;100309.50;6290237;22;20087;-93
2020/12/06 04:25:55;;;;;;;56.70;29.67;;;;;;;3.35;100.00;100324.19;6256715;22;20034;-94
2020/12/06 04:28:23;;;;;;;56.73;31.23;;;;;;;3.35;100.00;100326.84;6253459;22;20024;-93
2020/12/06 04:30:50;;;;;;;55.40;30.27;;;;;;;3.40;100.00;100337.31;6251725;22;20023;-95
2020/12/06 04:33:18;;;;;;;54.97;30.60;;;;;;;3.42;100.00;100330.16;6254845;22;20023;-94
2020/12/06 04:35:45;;;;;;;56.70;31.57;;;;;;;3.42;100.00;100332.81;6247623;22;20016;-93
2020/12/06 04:38:13;;;;;;;56.93;30.57;;;;;;;3.25;100.00;100335.94;6251430;22;20065;-92
2020/12/06 04:40:41;;;;;;;51.42;30.40;;;;;;;3.41;100.00;100343.44;6250777;22;20062;-93
2020/12/06 04:43:09;;;;;;;55.90;30.50;;;;;;;3.35;100.00;100334.78;6251062;22;20066;-93
2020/12/06 04:45:36;;;;;;;53.57;29.77;;;;;;;3.41;100.00;100341.66;6251606;22;20058;-94
2020/12/06 04:48:06;;;;;;;51.97;30.00;;;;;;;3.14;100.00;100340.66;6251853;22;20000;-93
2020/12/06 04:50:35;;;;;;;52.00;29.88;;;;;;;3.23;100.00;100350.97;6267192;22;20019;-93
2020/12/06 04:53:06;;;;;;;52.87;30.40;;;;;;;3.30;100.00;100365.78;6272607;22;20000;-94
2020/12/06 04:55:35;;;;;;;61.50;30.77;;;;;;;3.16;100.00;100369.72;6261977;22;20019;-94
2020/12/06 04:58:05;;;;;;;51.60;29.58;;;;;;;3.40;100.00;100384.94;6249596;22;20458;-94
2020/12/06 05:00:34;;;;;;;57.17;32.00;;;;;;;3.24;100.00;100373.88;6249811;22;20038;-93
2020/12/06 05:03:06;;;;;;;57.28;30.23;;;;;;;3.06;100.00;100369.94;6245548;22;20008;-94
2020/12/06 05:05:36;;;;;;;58.13;29.67;;;;;;;3.01;100.00;100368.34;6243208;22;20019;-92
2020/12/06 05:08:09;;;;;;;53.50;29.27;;;;;;;3.00;100.00;100372.78;6248464;22;20054;-93
2020/12/06 05:10:39;;;;;;;53.13;29.15;;;;;;;2.95;100.00;100387.00;6248984;22;20077;-93
2020/12/06 05:13:08;;;;;;;51.83;29.27;;;;;;;2.82;100.00;100387.34;6249113;22;20026;-92
2020/12/06 05:18:38;;;;;;;50.90;27.87;;;;;;;2.53;100.00;100373.97;6283691;22;20074;-94
2020/12/06 05:21:35;;;;;;;51.80;29.57;;;;;;;2.65;100.00;100368.38;6285493;22;20057;-93
2020/12/06 05:24:03;;;;;;;55.27;30.47;;;;;;;2.76;100.00;100371.63;6254324;22;20020;-93
2020/12/06 05:26:35;;;;;;;58.83;31.53;;;;;;;2.82;100.00;100387.34;6256465;22;20046;-94
2020/12/06 05:29:04;;;;;;;55.10;30.67;;;;;;;2.79;100.00;100378.63;6253954;22;20038;-94
2020/12/06 05:31:32;;;;;;;55.30;31.40;;;;;;;2.91;100.00;100395.94;6246754;22;20489;-92
2020/12/06 05:33:59;;;;;;;50.83;29.23;;;;;;;2.92;100.00;100397.66;6247818;22;20043;-94
2020/12/06 05:36:28;;;;;;;57.10;30.47;;;;;;;2.96;100.00;100402.84;6249859;22;20102;-91
2020/12/06 05:38:56;;;;;;;55.50;30.67;;;;;;;2.83;100.00;100393.50;6249374;22;20469;-91
2020/12/06 05:41:24;;;;;;;51.78;29.00;;;;;;;2.85;100.00;100383.75;6262649;22;20024;-89
2020/12/06 05:43:51;;;;;;;56.47;31.47;;;;;;;2.84;100.00;100364.34;6247620;22;20069;-93
2020/12/06 05:46:20;;;;;;;50.87;29.87;;;;;;;2.97;100.00;100348.19;6237682;22;20616;-85
2020/12/06 05:48:47;;;;;;;50.92;31.30;;;;;;;2.94;100.00;100327.97;6243802;22;20020;-86
2020/12/06 05:51:15;;;;;;;53.67;33.15;;;;;;;2.95;100.00;100310.31;6270967;22;20698;-86
2020/12/06 05:53:42;;;;;;;51.75;31.23;;;;;;;2.97;100.00;100321.75;6246114;22;20047;-91
2020/12/06 05:56:14;;;;;;;54.33;31.63;;;;;;;3.07;100.00;100333.81;6247442;22;20034;-90
2020/12/06 05:58:42;;;;;;;52.43;30.83;;;;;;;3.06;100.00;100334.69;6241128;22;20027;-89
2020/12/06 06:01:10;;;;;;;56.75;31.20;;;;;;;3.06;100.00;100337.34;6244900;22;20023;-92
2020/12/06 06:03:42;;;;;;;55.28;32.97;;;;;;;3.01;100.00;100331.31;6246691;22;20103;-91
2020/12/06 06:06:22;;;;;;;55.00;32.63;;;;;;;3.05;100.00;100335.63;6244687;22;20107;-85
2020/12/06 06:08:51;;;;;;;59.22;33.17;;;;;;;3.19;100.00;100343.19;6271063;22;20099;-86
2020/12/06 06:11:27;;;;;;;54.63;31.45;;;;;;;3.10;100.00;100345.19;6264805;22;20042;-85
2020/12/06 06:13:59;;;;;;;52.00;32.03;;;;;;;3.00;100.00;100340.19;6237631;22;20465;-84
2020/12/06 06:16:29;;;;;;;52.28;30.13;;;;;;;3.08;100.00;100346.13;6242831;22;20110;-85
2020/12/06 06:18:59;;;;;;;56.97;31.33;;;;;;;3.04;100.00;100347.13;6243046;22;20023;-84
2020/12/06 06:21:31;;;;;;;57.45;32.38;;;;;;;2.88;100.00;100347.53;6270123;22;20016;-84
2020/12/06 06:24:01;;;;;;;59.30;32.03;;;;;;;3.07;100.00;100362.91;6270534;22;20022;-85
2020/12/06 06:26:32;;;;;;;67.00;36.23;;;;;;;3.10;100.00;100371.63;6237027;22;20328;-89
2020/12/06 06:29:00;;;;;;;57.23;33.00;;;;;;;3.13;100.00;100371.53;6242854;22;20422;-91
2020/12/06 06:31:31;;;;;;;53.50;30.88;;;;;;;3.04;100.00;100373.56;6246215;22;20020;-87
2020/12/06 06:34:00;;;;;;;58.95;32.58;;;;;;;3.05;100.00;100375.28;6242016;22;20023;-90
2020/12/06 06:36:28;;;;;;;58.40;31.33;;;;;;;3.03;100.00;100375.34;6247067;22;20027;-89
2020/12/06 06:38:56;;;;;;;58.50;32.53;;;;;;;3.08;100.00;100367.28;6250079;22;20020;-90
2020/12/06 06:41:25;;;;;;;54.67;30.90;;;;;;;3.05;100.00;100362.06;6247944;22;20054;-89
2020/12/06 06:43:59;;;;;;;58.03;32.93;;;;;;;3.04;100.00;100368.28;6279023;22;20356;-89
2020/12/06 06:46:33;;;;;;;60.27;33.87;;;;;;;2.99;100.00;100362.22;6253558;22;20046;-90
2020/12/06 06:49:09;;;;;;;61.97;33.70;;;;;;;2.97;100.00;100354.34;6253185;22;20347;-89
2020/12/06 06:51:38;;;;;;;66.80;35.27;;;;;;;2.97;100.00;100346.41;6252657;22;20012;-89
2020/12/06 06:54:07;;;;;;;64.17;35.40;;;;;;;3.09;100.00;100342.56;6252230;22;20043;-90
2020/12/06 06:56:48;;;;;;;68.10;32.90;;;;;;;3.04;100.00;100341.81;6251473;22;20035;-90
2020/12/06 06:59:16;;;;;;;61.73;33.87;;;;;;;3.12;100.00;100339.84;6255538;22;20039;-90
2020/12/06 07:01:48;;;;;;;69.72;35.03;;;;;;;3.13;100.00;100331.84;6255595;22;20073;-89
2020/12/06 07:04:19;;;;;;;72.30;37.28;;;;;;;3.16;100.00;100337.97;6255799;22;20023;-90
2020/12/06 07:06:48;;;;;;;66.38;35.25;;;;;;;3.24;100.00;100347.41;6252620;22;20020;-89
2020/12/06 07:09:22;;;;;;;67.80;35.63;;;;;;;3.29;100.00;100331.44;6249556;22;20506;-90
2020/12/06 07:11:49;;;;;;;70.27;34.67;;;;;;;3.36;100.00;100335.66;6254863;22;20435;-90
2020/12/06 07:14:17;;;;;;;74.53;37.83;;;;;;;3.43;100.00;100341.66;6253597;22;20050;-86
2020/12/06 07:16:44;;;;;;;72.10;37.27;;;;;;;3.56;100.00;100338.56;6253837;22;20378;-85
2020/12/06 07:19:13;;;;;;;72.45;36.35;;;;;;;3.56;100.00;100332.41;6253191;22;20020;-91
2020/12/06 07:48:21;;;;;;;80.07;38.72;;;;;;;4.41;100.00;100350.13;6290302;22;20055;-89
2020/12/06 07:50:49;;;;;;;77.57;38.20;;;;;;;4.46;100.00;100326.97;6277281;22;20024;-89
2020/12/06 07:53:16;;;;;;;80.03;40.30;;;;;;;4.56;100.00;100333.72;6283297;22;20019;-90
2020/12/06 07:55:44;;;;;;;78.57;40.83;;;;;;;4.70;100.00;100340.34;6282125;22;20019;-87
2020/12/06 07:58:21;;;;;;;86.07;40.97;;;;;;;4.75;100.00;100325.13;6312694;22;20016;-89
2020/12/06 08:00:49;;;;;;;84.57;42.45;;;;;;;4.77;100.00;100321.53;6285220;22;20016;-89
2020/12/06 08:03:17;;;;;;;74.20;38.75;;;;;;;4.81;100.00;100322.28;6281968;22;20303;-91
2020/12/06 08:05:46;;;;;;;74.75;38.65;;;;;;;4.84;100.00;100310.72;6305769;22;20123;-85
2020/12/06 08:08:18;;;;;;;84.80;39.85;;;;;;;4.94;100.00;100313.00;6284706;22;20280;-91
2020/12/06 08:10:50;;;;;;;82.07;40.55;;;;;;;5.02;100.00;100304.75;6312456;22;20066;-87
2020/12/06 08:13:18;;;;;;;76.35;38.78;;;;;;;5.04;100.00;100302.91;6285951;22;20046;-88
2020/12/06 08:15:46;;;;;;;87.93;43.00;;;;;;;5.06;100.00;100317.84;6312435;22;20054;-87
2020/12/06 08:18:14;;;;;;;89.00;43.30;;;;;;;5.10;100.00;100305.34;6279216;22;20041;-88
2020/12/06 08:20:53;;;;;;;85.35;40.97;;;;;;;5.11;100.00;100301.75;6278559;22;20029;-88
2020/12/06 08:23:30;;;;;;;80.70;38.90;;;;;;;5.13;100.00;100307.91;6285268;22;20080;-86
2020/12/06 08:25:57;;;;;;;80.82;40.08;;;;;;;5.15;100.00;100315.78;6309958;22;20022;-84
2020/12/06 08:28:25;;;;;;;86.40;41.65;;;;;;;5.20;100.00;100320.03;6310735;22;20045;-86
2020/12/06 08:30:54;;;;;;;85.47;40.30;;;;;;;5.18;100.00;100316.53;6308121;22;20102;-88
2020/12/06 08:33:24;;;;;;;83.90;40.65;;;;;;;5.18;100.00;100327.16;6304080;22;20453;-88
2020/12/06 08:35:56;;;;;;;74.47;37.85;;;;;;;5.23;100.00;100319.91;6282870;22;20019;-84
2020/12/06 08:38:26;;;;;;;74.43;38.20;;;;;;;5.25;100.00;100310.09;6283956;22;20029;-88
2020/12/06 08:41:04;;;;;;;82.03;40.05;;;;;;;5.28;100.00;100309.13;6310615;22;20022;-89
2020/12/06 08:43:49;;;;;;;81.97;40.47;;;;;;;5.27;100.00;100305.63;6283647;22;20083;-88
2020/12/06 08:46:19;;;;;;;80.47;38.85;;;;;;;5.32;100.00;100307.22;6278701;22;20023;-88
2020/12/06 08:48:48;;;;;;;80.88;39.45;;;;;;;5.38;100.00;100309.66;6305824;22;20041;-87
2020/12/06 08:51:30;;;;;;;79.65;39.92;;;;;;;5.42;100.00;100311.28;6281738;22;20027;-89
2020/12/06 08:53:59;;;;;;;77.80;39.55;;;;;;;5.46;100.00;100312.91;6283776;22;20275;-90
2020/12/06 08:56:32;;;;;;;75.88;39.15;;;;;;;5.50;100.00;100311.84;6284072;22;20118;-89
2020/12/06 08:59:05;;;;;;;77.53;39.67;;;;;;;5.53;100.00;100317.06;6282107;22;20038;-88
2020/12/06 09:01:32;;;;;;;77.55;38.33;;;;;;;5.49;100.00;100316.31;6304158;22;20514;-88
2020/12/06 09:04:00;;;;;;;73.60;37.17;;;;;;;5.56;100.00;100316.94;6309956;22;20016;-85
2020/12/06 09:06:29;;;;;;;75.70;37.15;;;;;;;5.56;100.00;100308.97;6282971;22;20030;-90
2020/12/06 09:08:57;;;;;;;74.57;37.40;;;;;;;5.59;100.00;100306.22;6285145;22;20185;-90
2020/12/06 09:11:25;;;;;;;71.00;37.15;;;;;;;5.58;100.00;100299.16;6258426;22;20022;-88
2020/12/06 09:13:52;;;;;;;75.03;39.20;;;;;;;5.64;100.00;100301.59;6306313;22;20023;-88
2020/12/06 09:16:19;;;;;;;71.50;37.50;;;;;;;5.74;100.00;100297.66;6304410;22;20102;-83
2020/12/06 09:18:46;;;;;;;71.20;37.35;;;;;;;5.76;100.00;100295.78;6307644;22;20015;-84
2020/12/06 09:21:15;;;;;;;69.05;36.20;;;;;;;5.81;100.00;100295.63;6280964;22;20023;-84
2020/12/06 09:23:44;;;;;;;65.45;35.17;;;;;;;5.81;100.00;100298.28;6310798;22;20477;-86
2020/12/06 09:26:12;;;;;;;65.30;33.50;;;;;;;5.84;100.00;100300.81;6278679;22;20516;-87
2020/12/06 09:28:39;;;;;;;68.35;36.58;;;;;;;5.92;100.00;100303.19;6267454;22;20019;-87
2020/12/06 09:31:06;;;;;;;65.47;34.45;;;;;;;5.93;100.00;100296.97;6298023;22;20015;-86
2020/12/06 09:33:33;;;;;;;66.10;34.70;;;;;;;5.95;100.00;100292.44;6275129;22;20089;-87
2020/12/06 09:36:02;;;;;;;64.07;34.67;;;;;;;5.96;100.00;100291.53;6272319;22;20027;-88
2020/12/06 09:38:30;;;;;;;60.08;31.70;;;;;;;6.03;100.00;100293.03;6273161;22;20019;-85
2020/12/06 09:40:58;;;;;;;68.07;34.15;;;;;;;6.06;100.00;100282.28;6271684;22;20057;-86
2020/12/06 09:43:25;;;;;;;65.25;34.00;;;;;;;6.11;100.00;100288.25;6294083;22;20594;-86
2020/12/06 09:45:52;;;;;;;56.15;31.33;;;;;;;6.15;100.00;100284.56;6300422;22;20084;-87
2020/12/06 09:48:19;;;;;;;63.22;32.88;;;;;;;6.24;100.00;100278.03;6301507;22;20023;-86
2020/12/06 09:50:46;;;;;;;58.15;31.10;;;;;;;6.26;100.00;100284.97;6272860;22;20102;-84
2020/12/06 09:53:13;;;;;;;60.10;31.80;;;;;;;6.33;100.00;100277.63;6301547;22;20096;-85
2020/12/06 09:55:40;;;;;;;58.38;30.00;;;;;;;6.35;100.00;100269.59;6269218;22;20019;-86
2020/12/06 09:58:08;;;;;;;53.40;28.25;;;;;;;6.37;100.00;100268.59;6296496;22;20069;-86
2020/12/06 10:00:35;;;;;;;54.78;30.23;;;;;;;6.39;100.00;100257.91;6303065;22;20012;-88
2020/12/06 10:03:03;;;;;;;51.25;27.83;;;;;;;6.40;100.00;100246.34;6303821;22;20120;-86
2020/12/06 10:05:30;;;;;;;48.10;26.15;;;;;;;6.44;100.00;100245.25;6302643;22;20094;-85
2020/12/06 10:07:57;;;;;;;49.88;26.83;;;;;;;6.49;100.00;100236.19;6275915;22;20030;-88
2020/12/06 10:10:24;;;;;;;50.35;27.48;;;;;;;6.53;100.00;100239.56;6269089;22;20049;-86
2020/12/06 10:12:51;;;;;;;42.65;25.42;;;;;;;6.57;100.00;100221.69;6296420;22;20011;-85
2020/12/06 10:15:19;;;;;;;49.20;26.73;;;;;;;6.57;100.00;100233.19;6300707;22;20019;-85
2020/12/06 10:17:46;;;;;;;50.70;26.30;;;;;;;6.67;100.00;100229.22;6302778;22;20015;-86
2020/12/06 10:20:14;;;;;;;46.55;26.30;;;;;;;6.69;100.00;100211.38;6301704;22;20073;-84
2020/12/06 10:22:41;;;;;;;45.30;25.13;;;;;;;6.68;100.00;100220.28;6301138;22;20019;-85
2020/12/06 10:25:08;;;;;;;49.33;27.80;;;;;;;6.70;100.00;100220.19;6294354;22;20023;-85
2020/12/06 10:27:35;;;;;;;47.63;26.05;;;;;;;6.71;100.00;100225.47;6299970;22;20019;-85
2020/12/06 10:30:07;;;;;;;42.03;25.35;;;;;;;6.73;100.00;100220.06;6302431;22;20343;-85
2020/12/06 10:32:35;;;;;;;44.83;26.65;;;;;;;6.78;100.00;100225.19;6303103;22;20087;-86
2020/12/06 10:35:04;;;;;;;46.53;25.00;;;;;;;6.83;100.00;100225.88;6303342;22;20062;-85
2020/12/06 10:37:31;;;;;;;42.42;23.73;;;;;;;6.87;100.00;100228.31;6297646;22;20047;-85
2020/12/06 10:39:58;;;;;;;42.67;24.73;;;;;;;6.89;100.00;100233.59;6296227;22;20048;-85
2020/12/06 10:42:25;;;;;;;43.13;24.17;;;;;;;6.90;100.00;100214.88;6271750;22;20131;-85
2020/12/06 10:44:53;;;;;;;41.00;23.45;;;;;;;6.94;100.00;100212.94;6299667;22;20030;-87
2020/12/06 10:47:21;;;;;;;41.25;22.85;;;;;;;6.96;100.00;100211.09;6300205;22;20020;-85
2020/12/06 10:49:48;;;;;;;41.45;24.30;;;;;;;6.92;100.00;100214.78;6299414;22;20019;-89
2020/12/06 10:52:16;;;;;;;38.92;22.20;;;;;;;6.93;100.00;100208.56;6265951;22;20023;-83
2020/12/06 10:54:47;;;;;;;41.85;22.85;;;;;;;6.93;100.00;100213.88;6295593;22;20015;-88
2020/12/06 10:57:14;;;;;;;38.00;22.42;;;;;;;6.97;100.00;100195.03;6273799;22;20023;-87
2020/12/06 10:59:41;;;;;;;37.58;22.77;;;;;;;6.94;100.00;100179.22;6302427;22;20015;-88
2020/12/06 11:02:08;;;;;;;40.83;23.15;;;;;;;6.98;100.00;100174.59;6275514;22;20050;-89
2020/12/06 11:04:35;;;;;;;41.92;23.20;;;;;;;6.94;100.00;100165.91;6275685;22;20065;-90
2020/12/06 11:07:04;;;;;;;38.38;21.98;;;;;;;6.95;100.00;100164.09;6293024;22;20097;-88
2020/12/06 11:09:31;;;;;;;40.10;23.15;;;;;;;7.00;100.00;100154.13;6269406;22;20529;-86
2020/12/06 11:11:58;;;;;;;41.95;23.02;;;;;;;7.05;100.00;100149.44;6301502;22;20065;-87
2020/12/06 11:14:26;;;;;;;42.03;24.00;;;;;;;7.09;100.00;100151.00;6310197;22;20061;-92
2020/12/06 11:16:53;;;;;;;41.28;23.42;;;;;;;7.18;100.00;100153.25;6283808;22;20606;-91
2020/12/06 11:19:20;;;;;;;42.58;24.00;;;;;;;7.21;100.00;100149.56;6281533;22;20102;-89
2020/12/06 11:21:51;;;;;;;41.88;22.77;;;;;;;7.32;100.00;100155.28;6277393;22;20023;-88
2020/12/06 11:24:19;;;;;;;;;;;;;;;7.40;100.00;100162.91;6312104;22;20019;-91
2020/12/06 11:26:46;;;;;;;39.80;22.88;;;;;;;7.37;100.00;100160.38;6311654;22;19914;-89
2020/12/06 11:29:14;;;;;;;38.80;22.88;;;;;;;7.39;100.00;100163.81;6282519;22;20022;-87
2020/12/06 11:31:42;;;;;;;39.80;23.00;;;;;;;7.42;100.00;100171.69;6311374;22;20065;-90
2020/12/06 11:34:10;;;;;;;37.13;21.25;;;;;;;7.48;100.00;100168.72;6278884;22;20462;-89
2020/12/06 11:36:38;;;;;;;43.08;22.98;;;;;;;7.57;100.00;100186.91;6304900;22;20015;-87
2020/12/06 11:39:07;;;;;;;40.85;23.55;;;;;;;7.49;100.00;100189.09;6282342;22;20016;-85
2020/12/06 11:41:39;;;;;;;42.15;22.25;;;;;;;7.64;100.00;100188.34;6283280;22;20027;-88
2020/12/06 11:44:07;;;;;;;42.22;24.65;;;;;;;7.48;100.00;100184.72;6309757;22;20045;-88
2020/12/06 11:46:38;;;;;;;39.08;22.08;;;;;;;7.47;100.00;100188.31;6311892;22;20007;-86
2020/12/06 11:49:07;;;;;;;38.28;21.83;;;;;;;7.54;100.00;100179.09;6305767;22;20021;-87
2020/12/06 11:51:37;;;;;;;37.05;21.40;;;;;;;7.58;100.00;100183.34;6310577;22;20016;-89
2020/12/06 11:54:09;;;;;;;39.08;22.30;;;;;;;7.60;100.00;100184.13;6285763;22;20023;-91
2020/12/06 11:56:38;;;;;;;41.10;21.25;;;;;;;7.69;100.00;100181.03;6285379;22;20035;-89